createdAt,value
2024-03-30T00:00:07.332Z,11.50
2024-03-30T00:03:24.148Z,10.50
2024-03-30T00:06:01.436Z,7.20
2024-03-30T00:08:32.988Z,11.90
2024-03-30T00:11:04.996Z,11.60
2024-03-30T00:13:36.916Z,9.80
2024-03-30T00:16:10.768Z,8.20
2024-03-30T00:18:44.265Z,10.80
2024-03-30T00:21:16.213Z,9.10
2024-03-30T00:23:47.664Z,10.00
2024-03-30T00:26:17.987Z,9.50
2024-03-30T00:28:49.495Z,14.90
2024-03-30T00:31:24.791Z,13.10
2024-03-30T00:33:56.736Z,11.70
2024-03-30T00:36:27.151Z,15.00
2024-03-30T00:39:01.543Z,15.40
2024-03-30T00:41:34.053Z,13.20
2024-03-30T00:44:04.771Z,19.40
2024-03-30T00:46:36.863Z,10.50
2024-03-30T00:49:07.106Z,12.00
2024-03-30T00:51:38.658Z,9.90
2024-03-30T00:54:09.141Z,13.20
2024-03-30T00:56:41.157Z,13.50
2024-03-30T00:59:11.522Z,10.20
2024-03-30T01:01:42.912Z,14.70
2024-03-30T01:04:13.395Z,12.50
2024-03-30T01:06:44.912Z,10.10
2024-03-30T01:09:15.274Z,8.60
2024-03-30T01:11:47.182Z,8.00
2024-03-30T01:14:19.362Z,12.20
2024-03-30T01:16:52.122Z,15.70
2024-03-30T01:19:23.069Z,11.20
2024-03-30T01:21:54.812Z,11.20
2024-03-30T01:24:25.896Z,10.90
2024-03-30T01:26:58.567Z,11.70
2024-03-30T01:29:28.846Z,10.00
2024-03-30T01:32:00.524Z,10.30
2024-03-30T01:34:33.718Z,9.60
2024-03-30T01:37:05.110Z,10.60
2024-03-30T01:39:35.536Z,11.80
2024-03-30T01:42:06.943Z,13.60
2024-03-30T01:44:37.356Z,9.80
2024-03-30T01:47:09.796Z,10.70
2024-03-30T01:49:40.195Z,10.30
2024-03-30T01:52:11.570Z,12.00
2024-03-30T01:54:41.922Z,10.90
2024-03-30T01:57:15.225Z,10.70
2024-03-30T01:59:45.625Z,9.30
2024-03-30T02:02:17.860Z,9.50
2024-03-30T02:04:48.175Z,10.20
2024-03-30T02:07:19.597Z,12.20
2024-03-30T02:09:50.832Z,11.10
2024-03-30T02:12:22.877Z,12.80
2024-03-30T02:14:52.994Z,11.00
2024-03-30T02:17:24.413Z,12.00
2024-03-30T02:19:58.682Z,14.20
2024-03-30T02:22:30.692Z,14.90
2024-03-30T02:25:01.013Z,13.00
2024-03-30T02:27:32.771Z,7.40
2024-03-30T02:30:03.586Z,8.70
2024-03-30T02:32:35.132Z,10.60
2024-03-30T02:35:05.675Z,11.90
2024-03-30T02:37:37.219Z,9.40
2024-03-30T02:40:09.009Z,15.10
2024-03-30T02:42:41.158Z,13.10
2024-03-30T02:45:12.436Z,12.40
2024-03-30T02:47:44.530Z,12.50
2024-03-30T02:50:14.813Z,7.60
2024-03-30T02:52:46.164Z,12.60
2024-03-30T02:55:16.497Z,10.80
2024-03-30T02:57:48.053Z,13.40
2024-03-30T03:00:18.835Z,17.00
2024-03-30T03:02:53.957Z,13.00
2024-03-30T03:05:26.487Z,16.60
2024-03-30T03:07:56.797Z,11.10
2024-03-30T03:10:28.256Z,11.20
2024-03-30T03:12:58.423Z,11.50
2024-03-30T03:15:29.881Z,10.30
2024-03-30T03:18:00.133Z,16.90
2024-03-30T03:20:31.663Z,17.70
2024-03-30T03:23:01.907Z,10.40
2024-03-30T03:25:33.651Z,8.20
2024-03-30T03:28:04.290Z,11.30
2024-03-30T03:30:35.835Z,9.90
2024-03-30T03:33:06.187Z,10.00
2024-03-30T03:35:37.619Z,10.60
2024-03-30T03:38:08.931Z,15.00
2024-03-30T03:40:40.620Z,14.40
2024-03-30T03:43:11.059Z,14.00
2024-03-30T03:45:47.181Z,14.40
2024-03-30T03:48:18.771Z,10.80
2024-03-30T03:50:48.936Z,15.20
2024-03-30T03:53:20.573Z,15.20
2024-03-30T03:55:50.916Z,12.50
2024-03-30T03:58:22.560Z,12.40
2024-03-30T04:00:53.067Z,11.80
2024-03-30T04:03:24.585Z,13.40
2024-03-30T04:05:55.032Z,13.30
2024-03-30T04:08:27.013Z,10.00
2024-03-30T04:11:06.804Z,17.00
2024-03-30T04:13:38.561Z,11.10
2024-03-30T04:16:08.834Z,15.50
2024-03-30T04:18:40.306Z,13.80
2024-03-30T04:21:10.609Z,14.40
2024-03-30T04:23:43.716Z,16.30
2024-03-30T04:26:18.468Z,15.40
2024-03-30T04:28:49.907Z,14.00
2024-03-30T04:31:20.093Z,11.60
2024-03-30T04:33:51.536Z,11.40
2024-03-30T04:36:21.944Z,12.30
2024-03-30T04:38:53.425Z,15.10
2024-03-30T04:41:23.770Z,12.10
2024-03-30T04:43:55.361Z,15.30
2024-03-30T04:46:25.697Z,14.60
2024-03-30T04:48:57.266Z,14.30
2024-03-30T04:51:27.352Z,15.00
2024-03-30T04:53:58.913Z,14.50
2024-03-30T04:56:29.276Z,15.00
2024-03-30T04:59:00.910Z,14.80
2024-03-30T05:01:31.234Z,17.00
2024-03-30T05:04:03.479Z,13.70
2024-03-30T05:06:33.776Z,18.20
2024-03-30T05:09:05.397Z,13.40
2024-03-30T05:11:35.775Z,19.00
2024-03-30T05:14:07.394Z,14.00
2024-03-30T05:16:40.432Z,15.40
2024-03-30T05:19:32.024Z,12.40
2024-03-30T05:22:03.420Z,16.80
2024-03-30T05:24:33.863Z,11.80
2024-03-30T05:27:05.462Z,17.20
2024-03-30T05:29:35.720Z,14.60
2024-03-30T05:32:07.252Z,14.90
2024-03-30T05:34:37.621Z,17.60
2024-03-30T05:37:09.282Z,11.20
2024-03-30T05:39:39.774Z,12.60
2024-03-30T05:42:13.419Z,15.20
2024-03-30T05:44:48.487Z,14.90
2024-03-30T05:47:20.053Z,20.10
2024-03-30T05:49:50.536Z,20.00
2024-03-30T05:52:22.043Z,17.10
2024-03-30T05:54:52.252Z,15.80
2024-03-30T05:57:23.831Z,16.70
2024-03-30T05:59:54.155Z,16.90
2024-03-30T06:02:26.271Z,21.10
2024-03-30T06:04:56.701Z,14.40
2024-03-30T06:07:28.219Z,17.60
2024-03-30T06:09:58.660Z,20.60
2024-03-30T06:12:30.753Z,17.40
2024-03-30T06:15:01.571Z,18.40
2024-03-30T06:17:37.054Z,20.60
2024-03-30T06:20:12.460Z,22.40
2024-03-30T06:22:44.394Z,30.00
2024-03-30T06:25:14.952Z,21.80
2024-03-30T06:27:46.521Z,19.40
2024-03-30T06:30:17.448Z,23.70
2024-03-30T06:32:49.067Z,21.50
2024-03-30T06:35:20.568Z,19.90
2024-03-30T06:37:52.106Z,19.60
2024-03-30T06:40:41.062Z,23.60
2024-03-30T06:43:31.737Z,19.80
2024-03-30T06:46:04.234Z,26.60
2024-03-30T06:48:34.479Z,22.30
2024-03-30T06:51:06.276Z,23.50
2024-03-30T06:53:36.660Z,24.10
2024-03-30T06:56:08.255Z,20.80
2024-03-30T06:58:38.578Z,24.40
2024-03-30T07:01:10.560Z,18.60
2024-03-30T07:03:41.296Z,27.20
2024-03-30T07:06:13.255Z,29.00
2024-03-30T07:08:43.747Z,24.70
2024-03-30T07:11:15.560Z,29.90
2024-03-30T07:13:47.078Z,28.90
2024-03-30T07:16:18.659Z,25.80
2024-03-30T07:18:50.551Z,29.50
2024-03-30T07:21:22.012Z,24.50
2024-03-30T07:23:52.432Z,25.40
2024-03-30T07:26:23.847Z,27.60
2024-03-30T07:28:54.258Z,25.10
2024-03-30T07:31:27.038Z,30.50
2024-03-30T07:33:57.454Z,26.60
2024-03-30T07:36:28.813Z,30.60
2024-03-30T07:38:59.195Z,25.10
2024-03-30T07:41:30.729Z,31.10
2024-03-30T07:44:01.147Z,27.80
2024-03-30T07:46:32.564Z,31.10
2024-03-30T07:49:02.960Z,33.80
2024-03-30T07:51:34.364Z,29.10
2024-03-30T07:54:04.788Z,31.20
2024-03-30T07:56:36.198Z,37.60
2024-03-30T07:59:06.978Z,33.50
2024-03-30T08:01:38.355Z,25.80
2024-03-30T08:04:09.110Z,32.80
2024-03-30T08:06:40.535Z,34.70
2024-03-30T08:09:11.034Z,40.90
2024-03-30T08:11:44.509Z,33.50
2024-03-30T08:14:14.809Z,30.40
2024-03-30T08:16:46.627Z,31.30
2024-03-30T08:19:18.397Z,40.40
2024-03-30T08:21:51.324Z,31.80
2024-03-30T08:24:21.847Z,35.30
2024-03-30T08:26:53.377Z,40.30
2024-03-30T08:29:23.873Z,41.50
2024-03-30T08:31:56.158Z,38.50
2024-03-30T08:34:26.636Z,35.40
2024-03-30T08:36:58.252Z,39.10
2024-03-30T08:39:29.160Z,40.80
2024-03-30T08:42:00.811Z,38.50
2024-03-30T08:44:31.537Z,29.30
2024-03-30T08:47:03.387Z,30.80
2024-03-30T08:49:34.041Z,36.10
2024-03-30T08:52:06.393Z,41.20
2024-03-30T08:54:36.699Z,47.60
2024-03-30T08:57:08.148Z,39.40
2024-03-30T08:59:39.024Z,49.10
2024-03-30T09:02:10.588Z,42.60
2024-03-30T09:04:40.949Z,43.50
2024-03-30T09:07:12.403Z,40.60
2024-03-30T09:09:42.877Z,39.00
2024-03-30T09:12:15.641Z,44.80
2024-03-30T09:14:46.092Z,40.50
2024-03-30T09:17:17.533Z,43.20
2024-03-30T09:19:47.917Z,38.80
2024-03-30T09:22:19.444Z,34.80
2024-03-30T09:24:50.966Z,39.60
2024-03-30T09:27:24.432Z,44.90
2024-03-30T09:29:54.548Z,38.00
2024-03-30T09:32:26.082Z,47.50
2024-03-30T09:34:56.522Z,48.20
2024-03-30T09:37:27.989Z,47.30
2024-03-30T09:39:58.127Z,47.40
2024-03-30T09:42:33.681Z,45.30
2024-03-30T09:45:05.445Z,40.90
2024-03-30T09:47:35.668Z,48.20
2024-03-30T09:50:08.902Z,45.90
2024-03-30T09:52:40.699Z,47.40
2024-03-30T09:55:16.061Z,46.80
2024-03-30T09:57:49.353Z,43.00
2024-03-30T10:00:19.928Z,37.70
2024-03-30T10:02:51.866Z,41.90
2024-03-30T10:05:32.453Z,51.10
2024-03-30T10:10:40.512Z,46.60
2024-03-30T10:13:21.607Z,42.10
2024-03-30T10:15:53.689Z,39.20
2024-03-30T10:18:24.296Z,37.90
2024-03-30T10:20:56.152Z,31.80
2024-03-30T10:23:26.567Z,43.30
2024-03-30T10:26:00.486Z,34.60
2024-03-30T10:28:30.807Z,33.30
2024-03-30T10:31:02.397Z,36.90
2024-03-30T10:33:33.173Z,44.90
2024-03-30T10:36:05.018Z,38.50
2024-03-30T10:38:38.519Z,39.40
2024-03-30T10:41:10.171Z,38.90
2024-03-30T10:43:40.584Z,40.90
2024-03-30T10:46:13.818Z,39.60
2024-03-30T10:48:44.417Z,40.90
2024-03-30T10:51:15.797Z,39.90
2024-03-30T10:53:46.197Z,41.10
2024-03-30T10:56:20.289Z,30.00
2024-03-30T10:58:59.260Z,38.70
2024-03-30T11:01:31.359Z,43.30
2024-03-30T11:04:01.700Z,46.80
2024-03-30T11:06:34.157Z,40.70
2024-03-30T11:09:05.853Z,41.20
2024-03-30T11:11:37.427Z,34.60
2024-03-30T11:14:08.180Z,42.80
2024-03-30T11:16:45.862Z,36.90
2024-03-30T11:19:20.786Z,40.00
2024-03-30T11:22:08.896Z,40.90
2024-03-30T11:24:44.785Z,34.40
2024-03-30T11:27:17.611Z,38.60
2024-03-30T11:30:08.925Z,50.70
2024-03-30T11:32:43.098Z,30.40
2024-03-30T11:35:24.362Z,31.20
2024-03-30T11:37:56.520Z,36.70
2024-03-30T11:40:32.018Z,31.70
2024-03-30T11:45:36.607Z,31.70
2024-03-30T11:48:08.277Z,40.20
2024-03-30T11:50:39.070Z,39.00
2024-03-30T11:53:17.199Z,43.20
2024-03-30T11:55:52.456Z,32.60
2024-03-30T11:58:25.486Z,34.70
2024-03-30T12:00:56.748Z,40.70
2024-03-30T12:03:29.873Z,36.20
2024-03-30T12:06:01.667Z,29.40
2024-03-30T12:08:33.497Z,41.20
2024-03-30T12:11:07.625Z,30.10
2024-03-30T12:13:39.781Z,39.60
2024-03-30T12:16:09.921Z,38.70
2024-03-30T12:18:41.296Z,40.00
2024-03-30T12:21:11.589Z,38.30
2024-03-30T12:23:43.003Z,38.70
2024-03-30T12:26:13.545Z,38.50
2024-03-30T12:28:45.331Z,31.50
2024-03-30T12:31:15.682Z,40.50
2024-03-30T12:33:47.173Z,32.00
2024-03-30T12:36:17.566Z,35.40
2024-03-30T12:38:49.211Z,32.80
2024-03-30T12:41:23.342Z,39.00
2024-03-30T12:44:03.628Z,36.90
2024-03-30T12:46:35.917Z,47.00
2024-03-30T12:49:06.424Z,39.60
2024-03-30T12:51:38.090Z,39.80
2024-03-30T12:54:09.606Z,34.10
2024-03-30T12:56:41.145Z,42.90
2024-03-30T12:59:11.470Z,34.20
2024-03-30T13:01:43.081Z,38.30
2024-03-30T13:04:13.594Z,39.70
2024-03-30T13:06:45.278Z,34.60
2024-03-30T13:09:22.253Z,37.50
2024-03-30T13:11:53.694Z,34.50
2024-03-30T13:14:24.072Z,35.90
2024-03-30T13:17:11.162Z,41.90
2024-03-30T13:19:42.843Z,37.20
2024-03-30T13:22:13.158Z,29.90
2024-03-30T13:24:44.898Z,36.40
2024-03-30T13:27:15.067Z,37.50
2024-03-30T13:29:47.760Z,34.20
2024-03-30T13:32:18.026Z,35.80
2024-03-30T13:34:49.596Z,41.80
2024-03-30T13:37:21.673Z,36.50
2024-03-30T13:39:53.287Z,25.20
2024-03-30T13:42:23.983Z,40.10
2024-03-30T13:44:55.365Z,34.80
2024-03-30T13:47:25.560Z,31.40
2024-03-30T13:49:57.037Z,33.40
2024-03-30T13:52:27.363Z,30.80
2024-03-30T13:54:58.749Z,40.20
2024-03-30T13:57:29.033Z,28.60
2024-03-30T14:00:00.468Z,29.40
2024-03-30T14:02:31.091Z,34.30
2024-03-30T14:05:02.729Z,35.40
2024-03-30T14:07:33.087Z,40.70
2024-03-30T14:10:05.828Z,36.40
2024-03-30T14:12:36.055Z,38.70
2024-03-30T14:15:07.752Z,34.20
2024-03-30T14:17:40.315Z,40.20
2024-03-30T14:20:11.966Z,35.00
2024-03-30T14:22:42.662Z,36.00
2024-03-30T14:25:14.033Z,38.20
2024-03-30T14:27:44.704Z,36.80
2024-03-30T14:30:16.487Z,32.80
2024-03-30T14:32:46.842Z,36.30
2024-03-30T14:35:19.846Z,38.70
2024-03-30T14:37:50.530Z,36.60
2024-03-30T14:40:22.159Z,44.10
2024-03-30T14:42:52.491Z,39.80
2024-03-30T14:45:24.460Z,49.40
2024-03-30T14:47:54.817Z,41.10
2024-03-30T14:50:26.450Z,51.50
2024-03-30T14:52:56.760Z,52.90
2024-03-30T14:55:28.292Z,47.80
2024-03-30T14:57:58.654Z,41.40
2024-03-30T15:00:30.918Z,38.70
2024-03-30T15:03:01.363Z,37.40
2024-03-30T15:05:33.166Z,36.90
2024-03-30T15:08:03.679Z,45.80
2024-03-30T15:10:35.172Z,34.20
2024-03-30T15:13:05.496Z,46.80
2024-03-30T15:15:37.112Z,40.00
2024-03-30T15:18:10.889Z,39.20
2024-03-30T15:20:44.216Z,36.40
2024-03-30T15:23:15.113Z,45.30
2024-03-30T15:25:47.142Z,33.10
2024-03-30T15:28:18.156Z,45.40
2024-03-30T15:31:08.253Z,38.80
2024-03-30T15:33:39.903Z,32.20
2024-03-30T15:36:10.273Z,50.00
2024-03-30T15:38:41.931Z,50.30
2024-03-30T15:41:13.029Z,53.60
2024-03-30T15:43:44.846Z,42.00
2024-03-30T15:46:18.144Z,44.70
2024-03-30T15:48:51.071Z,41.50
2024-03-30T15:51:21.862Z,49.30
2024-03-30T15:53:53.498Z,44.90
2024-03-30T15:56:23.824Z,50.00
2024-03-30T15:58:55.409Z,45.50
2024-03-30T16:01:25.703Z,42.90
2024-03-30T16:03:57.215Z,48.30
2024-03-30T16:06:27.600Z,43.60
2024-03-30T16:08:59.286Z,51.10
2024-03-30T16:11:32.354Z,47.50
2024-03-30T16:14:03.900Z,42.10
2024-03-30T16:16:34.005Z,46.40
2024-03-30T16:19:05.756Z,52.60
2024-03-30T16:21:35.907Z,45.10
2024-03-30T16:24:07.947Z,49.50
2024-03-30T16:26:38.079Z,42.50
2024-03-30T16:29:09.717Z,49.70
2024-03-30T16:31:39.796Z,46.70
2024-03-30T16:34:11.397Z,59.50
2024-03-30T16:36:41.625Z,46.40
2024-03-30T16:39:18.856Z,55.60
2024-03-30T16:41:52.194Z,49.90
2024-03-30T16:44:27.630Z,81.70
2024-03-30T16:47:02.420Z,65.70
2024-03-30T16:49:35.643Z,58.90
2024-03-30T16:52:06.414Z,87.20
2024-03-30T16:54:38.263Z,72.30
2024-03-30T16:57:09.062Z,66.60
2024-03-30T16:59:40.860Z,57.40
2024-03-30T17:02:11.114Z,66.70
2024-03-30T17:04:42.697Z,57.10
2024-03-30T17:07:12.804Z,100.50
2024-03-30T17:09:44.484Z,70.20
2024-03-30T17:12:16.197Z,63.30
2024-03-30T17:14:48.409Z,51.10
2024-03-30T17:17:19.908Z,66.00
2024-03-30T17:19:51.392Z,52.30
2024-03-30T17:22:21.709Z,56.80
2024-03-30T17:24:53.177Z,54.90
2024-03-30T17:27:23.767Z,52.70
2024-03-30T17:29:55.220Z,55.10
2024-03-30T17:32:25.594Z,59.60
2024-03-30T17:35:01.464Z,47.40
2024-03-30T17:37:33.510Z,58.10
2024-03-30T17:40:04.702Z,60.50
2024-03-30T17:42:36.362Z,50.60
2024-03-30T17:45:07.129Z,54.50
2024-03-30T17:47:39.147Z,58.00
2024-03-30T17:50:09.435Z,57.40
2024-03-30T17:52:41.076Z,45.70
2024-03-30T17:55:11.764Z,63.30
2024-03-30T17:57:45.671Z,55.40
2024-03-30T18:00:16.098Z,52.70
2024-03-30T18:02:49.909Z,62.10
2024-03-30T18:05:20.467Z,56.20
2024-03-30T18:07:52.491Z,51.90
2024-03-30T18:10:22.768Z,58.80
2024-03-30T18:12:54.718Z,48.60
2024-03-30T18:15:25.210Z,51.80
2024-03-30T18:17:57.387Z,47.80
2024-03-30T18:20:29.204Z,59.00
2024-03-30T18:23:01.843Z,49.20
2024-03-30T18:25:36.090Z,60.20
2024-03-30T18:28:10.672Z,52.30
2024-03-30T18:30:46.928Z,56.40
2024-03-30T18:33:19.549Z,47.20
2024-03-30T18:35:49.930Z,53.80
2024-03-30T18:38:21.500Z,62.20
2024-03-30T18:40:51.940Z,61.80
2024-03-30T18:43:23.552Z,57.50
2024-03-30T18:45:54.625Z,62.60
2024-03-30T18:48:26.344Z,47.40
2024-03-30T18:51:06.328Z,51.20
2024-03-30T18:53:39.180Z,62.30
2024-03-30T18:56:09.832Z,59.90
2024-03-30T18:58:45.859Z,46.70
2024-03-30T19:01:20.095Z,46.90
2024-03-30T19:03:56.736Z,46.40
2024-03-30T19:06:28.457Z,47.60
2024-03-30T19:08:58.729Z,42.50
2024-03-30T19:11:30.462Z,41.40
2024-03-30T19:14:00.996Z,54.80
2024-03-30T19:16:32.536Z,45.40
2024-03-30T19:19:04.601Z,51.70
2024-03-30T19:21:36.213Z,51.50
2024-03-30T19:24:06.771Z,52.50
2024-03-30T19:26:38.319Z,47.00
2024-03-30T19:29:09.116Z,55.20
2024-03-30T19:31:44.191Z,45.40
2024-03-30T19:34:17.740Z,50.40
2024-03-30T19:36:48.010Z,49.60
2024-03-30T19:39:19.903Z,50.20
2024-03-30T19:41:51.032Z,44.90
2024-03-30T19:44:22.545Z,54.40
2024-03-30T19:46:52.990Z,41.40
2024-03-30T19:49:27.163Z,53.90
2024-03-30T19:51:57.615Z,44.30
2024-03-30T19:54:29.107Z,42.20
2024-03-30T19:56:59.368Z,50.50
2024-03-30T19:59:30.755Z,35.10
2024-03-30T20:02:01.385Z,47.90
2024-03-30T20:04:32.799Z,51.30
2024-03-30T20:07:03.445Z,51.00
2024-03-30T20:09:36.370Z,40.00
2024-03-30T20:12:07.628Z,49.80
2024-03-30T20:14:39.020Z,45.20
2024-03-30T20:17:09.155Z,41.10
2024-03-30T20:19:40.583Z,46.60
2024-03-30T20:22:10.938Z,50.50
2024-03-30T20:24:42.337Z,46.80
2024-03-30T20:27:13.998Z,53.90
2024-03-30T20:29:45.447Z,41.40
2024-03-30T20:32:15.734Z,46.60
2024-03-30T20:34:47.269Z,42.90
2024-03-30T20:37:17.914Z,43.70
2024-03-30T20:39:51.057Z,36.70
2024-03-30T20:42:21.419Z,46.00
2024-03-30T20:44:53.094Z,43.90
2024-03-30T20:47:25.283Z,38.60
2024-03-30T20:49:56.968Z,44.60
2024-03-30T20:52:28.001Z,44.40
2024-03-30T20:54:59.707Z,40.70
2024-03-30T20:57:30.138Z,40.00
2024-03-30T21:00:02.207Z,38.60
2024-03-30T21:02:33.758Z,39.50
2024-03-30T21:05:05.653Z,44.60
2024-03-30T21:07:37.341Z,38.60
2024-03-30T21:10:09.087Z,43.40
2024-03-30T21:12:40.963Z,45.20
2024-03-30T21:15:12.695Z,38.70
2024-03-30T21:17:44.260Z,32.70
2024-03-30T21:20:15.781Z,38.80
2024-03-30T21:22:46.032Z,32.00
2024-03-30T21:25:17.894Z,32.90
2024-03-30T21:27:48.084Z,37.00
2024-03-30T21:30:19.700Z,37.60
2024-03-30T21:32:49.817Z,31.50
2024-03-30T21:35:22.735Z,34.90
2024-03-30T21:37:52.875Z,29.70
2024-03-30T21:40:24.772Z,32.80
2024-03-30T21:42:55.316Z,32.40
2024-03-30T21:45:27.084Z,34.60
2024-03-30T21:47:57.220Z,33.30
2024-03-30T21:50:28.811Z,30.30
2024-03-30T21:52:58.967Z,31.20
2024-03-30T21:55:30.473Z,37.30
2024-03-30T21:58:00.579Z,27.30
2024-03-30T22:00:32.183Z,28.60
2024-03-30T22:03:02.367Z,33.40
2024-03-30T22:05:38.222Z,31.10
2024-03-30T22:08:09.984Z,28.50
2024-03-30T22:10:41.091Z,26.30
2024-03-30T22:13:12.783Z,26.00
2024-03-30T22:15:43.288Z,26.80
2024-03-30T22:18:14.853Z,30.00
2024-03-30T22:20:45.383Z,22.40
2024-03-30T22:23:17.280Z,19.50
2024-03-30T22:25:48.059Z,21.70
2024-03-30T22:28:19.650Z,16.30
2024-03-30T22:30:49.977Z,23.40
2024-03-30T22:33:21.633Z,23.50
2024-03-30T22:35:52.647Z,18.90
2024-03-30T22:38:24.199Z,23.40
2024-03-30T22:41:01.863Z,15.40
2024-03-30T22:43:33.422Z,13.30
2024-03-30T22:46:03.935Z,21.70
2024-03-30T22:48:36.527Z,18.30
2024-03-30T22:51:07.470Z,19.60
2024-03-30T22:53:39.051Z,19.50
2024-03-30T22:56:12.659Z,19.00
2024-03-30T22:58:44.238Z,15.70
2024-03-30T23:01:14.792Z,21.50
2024-03-30T23:03:46.383Z,13.30
2024-03-30T23:06:16.541Z,23.50
2024-03-30T23:08:48.036Z,19.80
2024-03-30T23:11:18.174Z,16.10
2024-03-30T23:13:49.720Z,17.10
2024-03-30T23:16:19.903Z,20.50
2024-03-30T23:18:51.718Z,16.00
2024-03-30T23:21:21.832Z,23.00
2024-03-30T23:23:53.508Z,16.80
2024-03-30T23:26:23.767Z,17.60
2024-03-30T23:28:55.459Z,20.00
2024-03-30T23:31:26.993Z,13.10
2024-03-30T23:33:59.935Z,16.90
2024-03-30T23:36:30.285Z,19.20
2024-03-30T23:39:02.039Z,18.40
2024-03-30T23:41:32.302Z,21.90
2024-03-30T23:44:03.904Z,21.60
2024-03-30T23:46:34.184Z,17.80
2024-03-30T23:49:05.721Z,19.60
2024-03-30T23:51:36.159Z,16.20
2024-03-30T23:54:08.509Z,16.50
2024-03-30T23:56:39.540Z,17.70
2024-03-30T23:59:11.099Z,14.40
